Time;durP1;ratioP1;P1;durP2;ratioP2;P2;SDS_P1;SDS_P2;PMS_P1;PMS_P2;Temp;Humidity;BMP_temperature;BMP_pressure;BME280_temperature;BME280_humidity;BME280_pressure;Samples;Min_cycle;Max_cycle;Signal;HPM_P1;HPM_P2
2023/03/10 00:01:17;;;;;;;10.05;3.78;;;14.80;96.70;;;;;;5065478;28;20067;-71
2023/03/10 00:03:45;;;;;;;10.55;4.22;;;14.80;96.70;;;;;;5074853;28;20040;-71
2023/03/10 00:06:15;;;;;;;16.10;4.60;;;14.70;96.70;;;;;;5083296;28;20040;-71
2023/03/10 00:08:44;;;;;;;12.75;3.85;;;14.80;96.70;;;;;;5085674;28;20040;-71
2023/03/10 00:11:13;;;;;;;14.70;4.47;;;14.70;96.70;;;;;;5086795;28;20118;-71
2023/03/10 00:13:42;;;;;;;13.85;4.18;;;14.70;96.70;;;;;;5058611;28;20047;-71
2023/03/10 00:16:16;;;;;;;13.07;4.05;;;14.70;96.70;;;;;;5064691;28;20044;-71
2023/03/10 00:18:45;;;;;;;12.45;4.18;;;14.70;96.70;;;;;;5080940;28;20040;-71
2023/03/10 00:21:14;;;;;;;15.93;4.45;;;14.70;96.70;;;;;;5082261;28;20091;-71
2023/03/10 00:23:42;;;;;;;14.00;4.57;;;14.70;96.70;;;;;;5062508;28;20032;-72
2023/03/10 00:26:14;;;;;;;11.00;3.75;;;14.70;96.70;;;;;;5088180;28;20130;-71
2023/03/10 00:28:43;;;;;;;16.08;4.53;;;14.70;96.70;;;;;;5048173;28;20135;-71
2023/03/10 00:31:12;;;;;;;14.80;4.03;;;14.60;96.70;;;;;;5061737;28;20560;-71
2023/03/10 00:33:40;;;;;;;12.75;3.75;;;14.60;96.70;;;;;;5047800;28;20760;-72
2023/03/10 00:36:11;;;;;;;13.00;5.10;;;14.50;96.70;;;;;;5064072;28;20044;-71
2023/03/10 00:38:40;;;;;;;16.73;5.22;;;14.50;96.70;;;;;;5064104;28;20052;-71
2023/03/10 00:41:10;;;;;;;16.30;5.72;;;14.50;96.70;;;;;;5083772;28;20051;-71
2023/03/10 00:43:40;;;;;;;12.93;5.50;;;14.50;96.70;;;;;;5063158;28;20139;-71
2023/03/10 00:46:09;;;;;;;14.82;5.35;;;14.50;96.70;;;;;;5063296;28;20052;-71
2023/03/10 00:48:37;;;;;;;13.82;5.10;;;14.50;96.70;;;;;;5082514;28;20143;-71
2023/03/10 00:51:06;;;;;;;15.43;5.40;;;14.50;96.70;;;;;;5066600;28;20052;-71
2023/03/10 00:53:35;;;;;;;10.80;5.13;;;14.50;96.70;;;;;;5055001;28;20198;-71
2023/03/10 00:56:04;;;;;;;15.02;5.15;;;14.50;96.70;;;;;;5073739;28;20045;-71
2023/03/10 00:58:33;;;;;;;15.80;5.70;;;14.50;96.70;;;;;;5068152;28;20044;-71
2023/03/10 01:01:03;;;;;;;10.00;4.90;;;14.50;96.70;;;;;;5087571;28;20042;-71
2023/03/10 01:03:31;;;;;;;12.80;4.85;;;14.50;96.70;;;;;;5075181;28;20048;-71
2023/03/10 01:05:59;;;;;;;12.70;4.63;;;14.50;96.70;;;;;;5062270;28;20039;-71
2023/03/10 01:08:28;;;;;;;12.38;4.75;;;14.50;96.70;;;;;;5066379;28;20051;-71
2023/03/10 01:10:55;;;;;;;14.95;5.43;;;14.40;96.70;;;;;;5066760;28;20032;-71
2023/03/10 01:13:23;;;;;;;16.00;5.47;;;14.40;96.70;;;;;;5070968;28;20044;-71
2023/03/10 01:15:52;;;;;;;14.65;5.78;;;14.40;96.70;;;;;;5070486;28;20739;-71
2023/03/10 01:18:21;;;;;;;13.15;5.30;;;14.40;96.70;;;;;;5064069;28;20051;-71
2023/03/10 01:20:49;;;;;;;12.27;5.05;;;14.30;96.70;;;;;;5087419;28;20138;-71
2023/03/10 01:23:20;;;;;;;11.07;5.50;;;14.40;96.70;;;;;;5071613;28;20036;-71
2023/03/10 01:25:50;;;;;;;14.23;5.70;;;14.40;96.70;;;;;;5071551;28;20577;-71
2023/03/10 01:28:19;;;;;;;10.95;5.30;;;14.40;96.70;;;;;;5066610;28;20638;-71
2023/03/10 01:30:47;;;;;;;13.90;5.47;;;14.40;96.70;;;;;;5076908;28;20500;-71
2023/03/10 01:33:16;;;;;;;13.50;5.60;;;14.40;96.70;;;;;;5070858;28;20035;-72
2023/03/10 01:35:46;;;;;;;12.82;5.28;;;14.40;96.70;;;;;;5077926;28;20467;-72
2023/03/10 01:38:14;;;;;;;11.57;5.50;;;14.40;96.70;;;;;;5081392;28;20040;-72
2023/03/10 01:40:47;;;;;;;13.40;5.40;;;14.40;96.70;;;;;;5061980;28;20071;-72
2023/03/10 01:43:27;;;;;;;11.50;5.60;;;14.40;96.70;;;;;;5082409;28;20040;-72
2023/03/10 01:46:36;;;;;;;13.55;5.95;;;14.40;96.70;;;;;;5069038;28;20054;-72
2023/03/10 01:49:30;;;;;;;16.13;5.85;;;14.40;96.70;;;;;;5066388;28;20105;-72
2023/03/10 01:52:05;;;;;;;12.93;6.38;;;14.40;96.70;;;;;;5066437;28;20044;-72
2023/03/10 01:54:42;;;;;;;13.98;5.53;;;14.40;96.70;;;;;;5057472;28;20044;-72
2023/03/10 01:57:12;;;;;;;10.20;5.07;;;14.30;96.70;;;;;;5062939;28;20048;-72
2023/03/10 01:59:40;;;;;;;11.82;4.85;;;14.20;96.70;;;;;;5068966;28;20211;-73
2023/03/10 02:02:10;;;;;;;12.45;5.28;;;14.20;96.70;;;;;;5057085;28;20051;-73
2023/03/10 02:04:42;;;;;;;12.05;5.28;;;14.20;96.70;;;;;;5062604;28;20059;-73
2023/03/10 02:07:13;;;;;;;12.45;5.53;;;14.20;96.70;;;;;;5079997;28;20040;-73
2023/03/10 02:09:45;;;;;;;12.88;5.40;;;14.20;96.70;;;;;;5077555;28;20886;-72
2023/03/10 02:12:14;;;;;;;11.32;5.22;;;14.30;96.70;;;;;;5056553;28;20520;-73
2023/03/10 02:14:45;;;;;;;12.88;5.25;;;14.20;96.70;;;;;;5079293;28;20589;-73
2023/03/10 02:17:17;;;;;;;11.85;4.57;;;14.20;96.70;;;;;;5079754;28;20036;-73
2023/03/10 02:20:19;;;;;;;10.55;4.90;;;14.20;96.70;;;;;;5080231;28;20064;-73
2023/03/10 02:22:50;;;;;;;15.57;5.93;;;14.20;96.70;;;;;;5085147;28;20126;-73
2023/03/10 02:25:28;;;;;;;12.20;5.20;;;14.20;96.70;;;;;;5076831;28;20055;-73
2023/03/10 02:27:58;;;;;;;10.15;4.82;;;14.10;96.70;;;;;;5056262;28;20044;-73
2023/03/10 02:30:30;;;;;;;13.52;4.88;;;14.00;96.70;;;;;;5075306;28;20507;-72
2023/03/10 02:33:03;;;;;;;11.65;5.00;;;14.00;96.70;;;;;;5091462;28;20044;-73
2023/03/10 02:35:32;;;;;;;9.18;4.68;;;14.00;96.70;;;;;;5059911;28;20097;-73
2023/03/10 02:38:05;;;;;;;14.52;4.95;;;14.00;96.70;;;;;;5065716;28;20035;-72
2023/03/10 02:40:36;;;;;;;8.90;4.35;;;14.00;96.70;;;;;;5050333;28;20055;-73
2023/03/10 02:43:19;;;;;;;9.77;4.53;;;14.10;96.70;;;;;;5064006;28;20043;-73
2023/03/10 02:45:52;;;;;;;10.52;4.20;;;14.10;96.70;;;;;;5058522;28;20109;-72
2023/03/10 02:48:24;;;;;;;8.98;4.10;;;14.20;96.70;;;;;;5050226;28;20049;-73
2023/03/10 02:50:57;;;;;;;9.75;3.78;;;14.20;96.70;;;;;;5077655;28;20426;-73
2023/03/10 02:53:28;;;;;;;10.32;4.35;;;14.20;96.70;;;;;;5077623;28;20128;-73
2023/03/10 02:55:57;;;;;;;11.40;4.97;;;14.20;96.70;;;;;;5050499;28;20044;-73
2023/03/10 02:58:30;;;;;;;13.05;4.47;;;14.20;96.70;;;;;;5053109;28;20101;-73
2023/03/10 03:01:00;;;;;;;10.00;3.95;;;14.10;96.70;;;;;;5077273;28;20042;-73
2023/03/10 03:03:28;;;;;;;14.70;4.28;;;14.10;96.70;;;;;;5056187;28;20244;-72
2023/03/10 03:05:57;;;;;;;8.40;3.88;;;14.10;96.70;;;;;;5058532;28;20505;-73
2023/03/10 03:08:26;;;;;;;10.68;4.03;;;14.10;96.70;;;;;;5069924;28;20124;-73
2023/03/10 03:10:55;;;;;;;9.10;3.95;;;14.00;96.70;;;;;;5056460;28;20048;-73
2023/03/10 03:13:23;;;;;;;8.23;3.30;;;14.00;96.70;;;;;;5056385;28;20607;-73
2023/03/10 03:15:53;;;;;;;9.95;3.40;;;14.00;96.70;;;;;;5043908;28;20127;-73
2023/03/10 03:18:22;;;;;;;10.32;4.03;;;14.00;96.70;;;;;;5082091;28;20561;-73
2023/03/10 03:20:51;;;;;;;9.75;3.55;;;14.10;96.70;;;;;;5061688;28;20050;-72
2023/03/10 03:23:19;;;;;;;7.93;2.85;;;14.10;96.70;;;;;;5084659;28;20638;-73
2023/03/10 03:25:49;;;;;;;10.93;3.30;;;14.00;96.70;;;;;;5059829;28;20048;-73
2023/03/10 03:28:20;;;;;;;10.48;2.97;;;14.00;96.70;;;;;;5053577;28;20044;-72
2023/03/10 03:30:50;;;;;;;11.35;3.28;;;14.00;96.70;;;;;;5056515;28;20378;-72
2023/03/10 03:33:20;;;;;;;6.70;2.80;;;14.00;96.70;;;;;;5063854;28;20502;-73
2023/03/10 03:35:49;;;;;;;9.48;3.00;;;14.00;96.70;;;;;;5068637;28;20048;-73
2023/03/10 03:38:18;;;;;;;8.98;2.67;;;14.00;96.70;;;;;;5071284;28;20080;-73
2023/03/10 03:40:47;;;;;;;11.65;3.65;;;14.00;96.70;;;;;;5056743;28;20402;-73
2023/03/10 03:43:18;;;;;;;9.30;2.83;;;14.00;96.70;;;;;;5062177;28;20513;-72
2023/03/10 03:45:47;;;;;;;8.70;3.05;;;14.00;96.70;;;;;;5078780;28;20048;-73
2023/03/10 03:48:16;;;;;;;8.70;3.13;;;14.10;96.70;;;;;;5063535;28;20615;-72
2023/03/10 03:50:47;;;;;;;9.77;2.92;;;14.00;96.70;;;;;;5070994;28;20098;-73
2023/03/10 03:53:24;;;;;;;9.32;3.22;;;14.00;96.70;;;;;;5058617;28;20417;-72
2023/03/10 03:55:54;;;;;;;10.10;3.47;;;14.00;96.70;;;;;;5071056;28;20044;-73
2023/03/10 03:58:25;;;;;;;8.07;2.88;;;14.00;96.70;;;;;;5074420;28;20495;-72
2023/03/10 04:00:53;;;;;;;8.93;3.47;;;14.00;96.70;;;;;;5071251;28;20051;-72
2023/03/10 04:03:22;;;;;;;9.00;3.00;;;14.00;96.70;;;;;;5085094;28;20059;-73
2023/03/10 04:05:52;;;;;;;6.70;2.53;;;13.90;96.70;;;;;;5056938;28;20112;-73
2023/03/10 04:08:21;;;;;;;9.80;3.08;;;13.90;96.70;;;;;;5087137;28;20980;-73
2023/03/10 04:10:50;;;;;;;10.48;3.15;;;13.90;96.70;;;;;;5070016;28;20044;-73
2023/03/10 04:13:21;;;;;;;7.00;2.40;;;13.90;96.70;;;;;;5052507;28;20056;-73
2023/03/10 04:15:55;;;;;;;8.57;2.60;;;13.90;96.70;;;;;;5053891;28;20612;-73
2023/03/10 04:18:25;;;;;;;7.82;2.60;;;13.90;96.70;;;;;;5071951;28;20051;-73
2023/03/10 04:20:55;;;;;;;10.07;2.63;;;13.90;96.70;;;;;;5064178;28;20047;-74
2023/03/10 04:23:23;;;;;;;6.13;2.35;;;13.90;96.70;;;;;;5077659;28;20040;-73
2023/03/10 04:25:52;;;;;;;5.90;2.45;;;13.80;96.70;;;;;;5058530;28;20584;-73
2023/03/10 04:28:21;;;;;;;12.15;3.30;;;13.80;96.70;;;;;;5064307;28;20055;-73
2023/03/10 04:30:50;;;;;;;14.82;6.35;;;13.80;96.70;;;;;;5071722;28;20036;-72
2023/03/10 04:33:22;;;;;;;12.95;5.25;;;13.70;96.70;;;;;;5046801;28;20600;-73
2023/03/10 04:35:52;;;;;;;12.13;3.33;;;13.80;96.70;;;;;;5072601;28;20040;-73
2023/03/10 04:38:23;;;;;;;9.73;3.15;;;13.90;96.70;;;;;;5071616;28;20558;-72
2023/03/10 04:40:54;;;;;;;8.70;3.25;;;13.90;96.70;;;;;;5073779;28;20036;-73
2023/03/10 04:43:26;;;;;;;6.85;2.70;;;13.90;96.70;;;;;;5071016;28;20047;-72
2023/03/10 04:45:55;;;;;;;9.98;3.15;;;13.90;96.70;;;;;;5067018;28;20483;-73
2023/03/10 04:48:24;;;;;;;8.80;2.65;;;13.90;96.70;;;;;;5083691;28;20036;-73
2023/03/10 04:50:56;;;;;;;8.15;2.97;;;13.90;96.70;;;;;;5056200;28;20069;-73
2023/03/10 04:53:31;;;;;;;5.20;2.50;;;13.90;96.70;;;;;;5068591;28;20143;-73
2023/03/10 04:56:01;;;;;;;9.05;3.17;;;13.80;96.70;;;;;;5056506;28;20036;-73
2023/03/10 04:58:31;;;;;;;6.82;2.95;;;13.80;96.70;;;;;;5058989;28;20105;-74
2023/03/10 05:01:00;;;;;;;9.65;3.40;;;13.80;96.70;;;;;;5066371;28;20050;-73
2023/03/10 05:03:36;;;;;;;11.27;3.80;;;13.90;96.70;;;;;;5062034;28;20331;-73
2023/03/10 05:06:11;;;;;;;9.70;3.55;;;13.70;96.70;;;;;;5081433;28;20043;-73
2023/03/10 05:08:42;;;;;;;10.82;3.35;;;13.70;96.70;;;;;;5075175;28;20086;-72
2023/03/10 05:11:11;;;;;;;7.40;2.63;;;13.70;96.70;;;;;;5058756;28;20147;-73
2023/03/10 05:13:40;;;;;;;9.43;3.00;;;13.80;96.70;;;;;;5082819;28;20038;-71
2023/03/10 05:16:13;;;;;;;10.25;3.08;;;13.70;96.70;;;;;;5046406;28;20134;-72
2023/03/10 05:18:41;;;;;;;10.30;3.33;;;13.80;96.70;;;;;;5082528;28;20599;-73
2023/03/10 05:21:11;;;;;;;10.25;3.35;;;13.80;96.70;;;;;;5050744;28;20464;-73
2023/03/10 05:23:41;;;;;;;8.35;3.00;;;13.80;96.70;;;;;;5047797;28;20146;-71
2023/03/10 05:26:13;;;;;;;9.57;3.20;;;13.80;96.70;;;;;;5072388;28;20703;-72
2023/03/10 05:28:42;;;;;;;7.93;3.40;;;13.90;96.70;;;;;;5063491;28;20814;-71
2023/03/10 05:31:14;;;;;;;7.55;2.80;;;13.90;96.70;;;;;;5042379;28;20048;-71
2023/03/10 05:33:44;;;;;;;7.18;2.35;;;13.90;96.70;;;;;;5064465;28;20048;-71
2023/03/10 05:36:14;;;;;;;7.63;2.85;;;13.90;96.70;;;;;;5062395;28;20055;-71
2023/03/10 05:38:47;;;;;;;8.82;2.97;;;13.90;96.70;;;;;;5064377;28;20036;-71
2023/03/10 05:41:17;;;;;;;7.28;2.72;;;13.90;96.70;;;;;;5063530;28;20052;-71
2023/03/10 05:43:49;;;;;;;6.80;2.80;;;13.90;96.70;;;;;;5055437;28;20143;-71
2023/03/10 05:46:18;;;;;;;7.75;2.28;;;14.00;96.70;;;;;;5064173;28;20044;-71
2023/03/10 05:48:53;;;;;;;6.93;2.55;;;14.00;96.70;;;;;;5061066;28;20047;-71
2023/03/10 05:51:21;;;;;;;9.02;2.70;;;14.00;96.70;;;;;;5080417;28;20047;-72
2023/03/10 05:53:51;;;;;;;6.38;2.35;;;14.00;96.70;;;;;;5064179;28;20056;-71
2023/03/10 05:56:24;;;;;;;8.50;3.03;;;13.90;96.70;;;;;;5068781;28;20663;-72
2023/03/10 05:58:57;;;;;;;7.72;2.88;;;13.90;96.70;;;;;;5062427;28;20035;-72
2023/03/10 06:01:31;;;;;;;11.25;3.17;;;13.90;96.70;;;;;;5055219;28;20575;-71
2023/03/10 06:04:00;;;;;;;8.07;3.58;;;13.90;96.70;;;;;;5060887;28;20028;-72
2023/03/10 06:06:28;;;;;;;7.70;3.05;;;13.90;96.70;;;;;;5073609;28;20513;-72
2023/03/10 06:08:58;;;;;;;7.90;2.97;;;13.90;96.70;;;;;;5063769;28;20039;-71
2023/03/10 06:11:26;;;;;;;10.00;3.65;;;13.80;96.70;;;;;;5083767;28;20033;-72
2023/03/10 06:13:55;;;;;;;8.27;2.92;;;13.70;96.70;;;;;;5068425;28;20052;-71
2023/03/10 06:16:23;;;;;;;7.90;2.63;;;13.60;96.70;;;;;;5085644;28;20036;-71
2023/03/10 06:18:53;;;;;;;5.82;3.00;;;13.50;96.70;;;;;;5056644;28;20752;-71
2023/03/10 06:21:22;;;;;;;9.18;3.25;;;13.50;96.70;;;;;;5064825;28;20134;-71
2023/03/10 06:23:51;;;;;;;9.55;3.22;;;13.50;96.70;;;;;;5075426;28;20543;-71
2023/03/10 06:26:21;;;;;;;8.77;3.15;;;13.50;96.70;;;;;;5081850;28;20054;-71
2023/03/10 06:28:50;;;;;;;9.73;3.28;;;13.50;96.70;;;;;;5062738;28;20062;-71
2023/03/10 06:31:20;;;;;;;6.65;3.53;;;13.60;96.70;;;;;;5067451;28;20563;-71
2023/03/10 06:33:49;;;;;;;9.93;3.60;;;13.60;96.70;;;;;;5065178;28;20102;-71
2023/03/10 06:36:19;;;;;;;10.50;4.07;;;13.70;96.70;;;;;;5081508;28;20043;-72
2023/03/10 06:38:48;;;;;;;13.80;4.53;;;13.80;96.70;;;;;;5077372;28;21348;-71
2023/03/10 06:41:17;;;;;;;11.80;4.03;;;13.80;96.70;;;;;;5085361;28;20044;-71
2023/03/10 06:43:47;;;;;;;8.05;3.33;;;13.80;96.70;;;;;;5052085;28;20043;-71
2023/03/10 06:46:16;;;;;;;9.52;3.60;;;13.80;96.70;;;;;;5072963;28;20051;-71
2023/03/10 06:48:45;;;;;;;7.60;2.88;;;13.80;96.70;;;;;;5064797;28;20109;-71
2023/03/10 06:51:15;;;;;;;8.10;3.00;;;13.70;96.70;;;;;;5086837;28;20424;-71
2023/03/10 06:53:43;;;;;;;8.85;3.08;;;13.60;96.70;;;;;;5067232;28;20032;-71
2023/03/10 06:56:13;;;;;;;8.95;3.42;;;13.60;96.70;;;;;;5069650;28;20068;-71
2023/03/10 06:58:42;;;;;;;10.15;3.55;;;13.60;96.70;;;;;;5091179;28;20071;-70
2023/03/10 07:01:22;;;;;;;9.55;3.75;;;13.50;96.70;;;;;;5086530;28;20440;-71
2023/03/10 07:03:50;;;;;;;8.82;3.63;;;13.50;96.70;;;;;;5070930;28;20044;-71
2023/03/10 07:06:19;;;;;;;11.63;4.20;;;13.40;96.70;;;;;;5071181;28;20044;-71
2023/03/10 07:08:47;;;;;;;9.85;4.15;;;13.40;96.70;;;;;;5071800;28;20109;-71
2023/03/10 07:11:16;;;;;;;10.45;4.18;;;13.40;96.70;;;;;;5057767;28;20050;-71
2023/03/10 07:13:44;;;;;;;9.13;4.03;;;13.40;96.70;;;;;;5088116;28;20089;-71
2023/03/10 07:16:13;;;;;;;11.23;3.88;;;13.30;96.70;;;;;;5087524;28;20119;-71
2023/03/10 07:18:43;;;;;;;10.02;3.80;;;13.40;96.70;;;;;;5084447;28;20664;-71
2023/03/10 07:21:14;;;;;;;10.10;4.15;;;13.40;96.70;;;;;;5084849;28;20051;-71
2023/03/10 07:23:42;;;;;;;13.75;4.45;;;13.50;96.70;;;;;;5064560;28;20575;-71
2023/03/10 07:26:13;;;;;;;6.43;3.28;;;13.60;96.70;;;;;;5070746;28;20044;-71
2023/03/10 07:28:41;;;;;;;12.48;4.43;;;13.70;96.70;;;;;;5086380;28;20040;-71
2023/03/10 07:31:11;;;;;;;8.80;2.85;;;13.90;96.70;;;;;;5085104;28;20042;-72
2023/03/10 07:33:42;;;;;;;17.45;4.45;;;13.90;96.70;;;;;;5074320;28;20176;-70
2023/03/10 07:36:13;;;;;;;15.13;4.50;;;14.00;96.70;;;;;;5077560;28;20047;-71
2023/03/10 07:38:42;;;;;;;9.00;3.45;;;14.00;96.70;;;;;;5089434;28;20067;-71
2023/03/10 07:41:12;;;;;;;15.07;3.50;;;14.00;96.70;;;;;;5063242;28;20051;-71
2023/03/10 07:43:41;;;;;;;15.85;3.33;;;14.10;96.70;;;;;;5094983;28;20036;-71
2023/03/10 07:46:11;;;;;;;11.02;2.88;;;14.20;96.70;;;;;;5094459;28;20044;-71
2023/03/10 07:48:42;;;;;;;10.00;2.60;;;14.20;96.70;;;;;;5074810;28;20044;-71
2023/03/10 07:51:11;;;;;;;11.20;2.80;;;14.30;96.70;;;;;;5104365;28;20525;-72
2023/03/10 07:53:39;;;;;;;12.77;2.70;;;14.40;96.70;;;;;;5092307;28;20119;-71
2023/03/10 07:56:10;;;;;;;10.63;2.42;;;14.50;96.70;;;;;;5089686;28;20133;-71
2023/03/10 07:58:38;;;;;;;9.50;3.13;;;14.60;96.70;;;;;;5084529;28;20040;-72
2023/03/10 08:01:12;;;;;;;11.63;3.05;;;14.80;96.70;;;;;;5060967;28;20043;-73
2023/03/10 08:03:42;;;;;;;6.95;2.38;;;15.00;96.70;;;;;;5093580;28;20562;-71
2023/03/10 08:06:16;;;;;;;11.05;2.95;;;15.20;96.70;;;;;;5060757;28;20048;-74
2023/03/10 08:08:44;;;;;;;13.00;3.50;;;15.40;96.70;;;;;;5065203;28;20048;-73
2023/03/10 08:11:13;;;;;;;7.68;3.10;;;15.50;96.70;;;;;;5070712;28;20036;-72
2023/03/10 08:13:44;;;;;;;12.13;2.50;;;15.50;96.70;;;;;;5076705;28;20057;-72
2023/03/10 08:16:13;;;;;;;14.35;3.63;;;15.50;96.70;;;;;;5065004;28;20098;-71
2023/03/10 08:18:43;;;;;;;9.73;2.00;;;15.60;96.70;;;;;;5075987;28;20036;-71
2023/03/10 08:21:12;;;;;;;11.77;2.60;;;15.70;96.70;;;;;;5057786;28;20139;-71
2023/03/10 08:23:40;;;;;;;9.27;2.10;;;15.80;96.70;;;;;;5094067;28;20063;-73
2023/03/10 08:26:12;;;;;;;7.97;1.92;;;15.90;96.70;;;;;;5099410;28;20039;-72
2023/03/10 08:28:40;;;;;;;6.70;1.98;;;16.00;96.70;;;;;;5070866;28;20046;-71
2023/03/10 08:31:11;;;;;;;8.43;3.05;;;16.10;96.70;;;;;;5093776;28;20090;-71
2023/03/10 08:33:40;;;;;;;9.75;2.35;;;16.30;96.70;;;;;;5064463;28;20113;-72
2023/03/10 08:36:12;;;;;;;13.68;3.70;;;16.40;96.70;;;;;;5094017;28;20047;-71
2023/03/10 08:38:41;;;;;;;7.03;2.15;;;16.50;96.70;;;;;;5069574;28;20444;-70
2023/03/10 08:41:12;;;;;;;8.70;2.00;;;16.40;96.70;;;;;;5091124;28;20362;-72
2023/03/10 08:43:43;;;;;;;10.93;2.90;;;16.30;96.70;;;;;;5090357;28;20070;-73
2023/03/10 08:46:15;;;;;;;9.10;2.35;;;16.20;96.70;;;;;;5080248;28;20131;-72
2023/03/10 08:48:44;;;;;;;10.30;2.33;;;16.10;96.70;;;;;;5068149;28;20036;-72
2023/03/10 08:51:14;;;;;;;12.18;3.20;;;16.10;96.70;;;;;;5090509;28;20040;-73
2023/03/10 08:53:48;;;;;;;10.48;2.67;;;16.10;96.70;;;;;;5054332;28;20054;-73
2023/03/10 08:56:18;;;;;;;8.60;2.53;;;16.10;96.70;;;;;;5099954;28;20039;-73
2023/03/10 08:58:47;;;;;;;8.85;2.35;;;16.10;96.70;;;;;;5072738;28;20036;-72
2023/03/10 09:01:16;;;;;;;9.15;2.50;;;16.10;96.70;;;;;;5068815;28;20067;-72
2023/03/10 09:03:46;;;;;;;8.45;1.83;;;16.10;96.70;;;;;;5074989;28;20047;-72
2023/03/10 09:06:16;;;;;;;9.90;2.05;;;16.40;96.70;;;;;;5077462;28;20048;-72
2023/03/10 09:08:45;;;;;;;8.68;2.10;;;16.50;96.70;;;;;;5065652;28;20089;-73
2023/03/10 09:11:17;;;;;;;7.72;2.17;;;16.50;96.70;;;;;;5056616;28;20127;-73
2023/03/10 09:13:45;;;;;;;7.00;2.05;;;16.50;96.70;;;;;;5074181;28;20093;-73
2023/03/10 09:16:14;;;;;;;9.65;1.95;;;16.60;96.70;;;;;;5074458;28;20039;-72
2023/03/10 09:18:43;;;;;;;9.15;2.15;;;16.60;96.70;;;;;;5097896;28;20093;-71
2023/03/10 09:21:13;;;;;;;9.90;1.92;;;16.60;96.70;;;;;;5064240;28;20250;-72
2023/03/10 09:23:44;;;;;;;11.65;2.58;;;16.80;96.70;;;;;;5064041;28;20048;-72
2023/03/10 09:26:13;;;;;;;11.13;3.72;;;16.90;96.70;;;;;;5102742;28;20093;-73
2023/03/10 09:28:41;;;;;;;8.60;2.10;;;16.90;96.70;;;;;;5071579;28;20050;-72
2023/03/10 09:31:16;;;;;;;16.55;2.60;;;16.80;96.70;;;;;;5091925;28;20055;-73
2023/03/10 09:33:44;;;;;;;10.80;1.95;;;16.70;96.70;;;;;;5065613;28;20047;-72
2023/03/10 09:36:15;;;;;;;8.70;2.13;;;16.60;96.70;;;;;;5091279;28;20044;-73
2023/03/10 09:38:46;;;;;;;15.95;2.22;;;16.50;96.70;;;;;;5069702;28;20032;-72
2023/03/10 09:41:33;;;;;;;10.93;2.20;;;16.50;96.70;;;;;;5105146;28;20039;-72
2023/03/10 09:44:21;;;;;;;15.20;2.80;;;16.40;96.70;;;;;;5064622;28;20528;-72
2023/03/10 09:47:02;;;;;;;10.05;2.13;;;16.40;96.70;;;;;;5076492;28;20516;-72
2023/03/10 09:49:35;;;;;;;13.10;2.40;;;16.50;96.70;;;;;;5081966;28;20560;-72
2023/03/10 09:52:18;;;;;;;15.10;2.97;;;16.60;96.70;;;;;;5068594;28;20048;-73
2023/03/10 09:54:57;;;;;;;13.50;3.47;;;16.50;96.70;;;;;;5079015;28;20073;-72
2023/03/10 09:57:27;;;;;;;14.23;2.63;;;16.50;96.70;;;;;;5076735;28;20094;-72
2023/03/10 09:59:58;;;;;;;15.82;2.67;;;16.50;96.70;;;;;;5100987;28;20730;-72
2023/03/10 10:02:38;;;;;;;11.55;2.47;;;16.70;96.70;;;;;;5104622;28;20050;-71
2023/03/10 10:05:14;;;;;;;13.50;2.58;;;16.70;96.70;;;;;;5077208;28;20044;-71
2023/03/10 10:07:49;;;;;;;18.02;3.40;;;16.60;96.70;;;;;;5104253;28;20048;-71
2023/03/10 10:10:23;;;;;;;11.50;2.38;;;16.50;96.70;;;;;;5085443;28;20064;-71
2023/03/10 10:12:53;;;;;;;10.60;3.00;;;16.50;96.70;;;;;;5075237;28;20052;-71
2023/03/10 10:15:24;;;;;;;15.50;3.25;;;16.40;96.70;;;;;;5062341;28;20051;-72
2023/03/10 10:18:03;;;;;;;12.55;2.72;;;16.40;96.70;;;;;;5086071;28;20046;-72
2023/03/10 10:20:50;;;;;;;9.90;2.58;;;16.40;96.70;;;;;;5101673;28;20059;-71
2023/03/10 10:23:21;;;;;;;15.00;2.95;;;16.30;96.70;;;;;;5099365;28;20401;-71
2023/03/10 10:25:51;;;;;;;14.15;3.45;;;16.20;96.70;;;;;;5093924;28;20080;-71
2023/03/10 10:28:31;;;;;;;12.15;3.08;;;16.30;96.70;;;;;;5101217;28;20047;-71
2023/03/10 10:31:11;;;;;;;16.42;3.75;;;16.30;96.70;;;;;;5071172;28;20583;-71
2023/03/10 10:33:57;;;;;;;16.27;2.58;;;16.20;96.70;;;;;;5059334;28;20048;-71
2023/03/10 10:36:28;;;;;;;13.57;2.50;;;16.10;96.70;;;;;;5069089;28;20048;-72
2023/03/10 10:38:57;;;;;;;19.17;3.85;;;16.10;96.70;;;;;;5070706;28;20208;-72
2023/03/10 10:41:30;;;;;;;20.35;3.72;;;15.90;96.70;;;;;;5050216;28;20154;-71
2023/03/10 10:44:05;;;;;;;16.13;3.58;;;15.70;96.70;;;;;;5071609;28;20048;-72
2023/03/10 10:46:32;;;;;;;17.95;3.78;;;15.60;96.70;;;;;;5066821;28;20054;-72
2023/03/10 10:49:03;;;;;;;20.42;3.47;;;15.50;96.70;;;;;;5065998;28;20397;-72
2023/03/10 10:51:36;;;;;;;17.65;3.72;;;15.50;96.70;;;;;;5075521;28;20083;-72
2023/03/10 10:54:21;;;;;;;15.23;3.38;;;15.40;96.70;;;;;;5098736;28;20128;-72
2023/03/10 10:56:54;;;;;;;19.35;3.50;;;15.40;96.70;;;;;;5106034;28;20039;-70
2023/03/10 10:59:28;;;;;;;17.70;3.53;;;15.40;96.70;;;;;;5070078;28;20067;-71
2023/03/10 11:01:57;;;;;;;17.80;4.15;;;15.40;96.70;;;;;;5091965;28;20067;-71
2023/03/10 11:04:27;;;;;;;15.93;3.17;;;15.50;96.70;;;;;;5070326;28;20068;-71
2023/03/10 11:07:10;;;;;;;18.85;3.35;;;15.50;96.70;;;;;;5066649;28;20391;-72
2023/03/10 11:09:38;;;;;;;31.52;4.60;;;15.50;96.70;;;;;;5064062;28;20055;-72
2023/03/10 11:12:18;;;;;;;20.15;3.40;;;15.50;96.70;;;;;;5103858;28;20039;-71
2023/03/10 11:15:08;;;;;;;19.17;3.80;;;15.60;96.70;;;;;;5096107;28;20035;-72
2023/03/10 11:17:41;;;;;;;18.42;4.10;;;15.70;96.70;;;;;;5045039;28;20109;-72
2023/03/10 11:20:22;;;;;;;18.35;3.70;;;15.70;96.70;;;;;;5074366;28;20131;-71
2023/03/10 11:22:58;;;;;;;19.55;3.65;;;15.80;96.70;;;;;;5104577;28;20069;-72
2023/03/10 11:25:31;;;;;;;27.55;4.25;;;15.70;96.70;;;;;;5059039;28;20044;-72
2023/03/10 11:28:17;;;;;;;18.70;3.97;;;15.80;96.70;;;;;;5072092;28;20517;-72
2023/03/10 11:30:50;;;;;;;28.95;5.07;;;15.80;96.70;;;;;;5045998;28;20052;-72
2023/03/10 11:33:24;;;;;;;18.77;3.88;;;15.80;96.70;;;;;;5085597;28;20058;-72
2023/03/10 11:35:56;;;;;;;24.38;4.80;;;15.70;96.70;;;;;;5072214;28;20122;-71
2023/03/10 11:38:36;;;;;;;24.42;4.80;;;15.50;96.70;;;;;;5092955;28;20256;-72
2023/03/10 11:41:09;;;;;;;27.63;5.30;;;15.40;96.70;;;;;;5076002;28;20086;-72
2023/03/10 11:43:52;;;;;;;19.85;4.82;;;15.50;96.70;;;;;;5058340;28;20045;-72
2023/03/10 11:46:24;;;;;;;23.65;5.40;;;15.70;96.70;;;;;;5104604;28;20055;-72
2023/03/10 11:49:06;;;;;;;23.08;4.45;;;15.80;96.70;;;;;;5086245;28;20044;-72
2023/03/10 11:51:38;;;;;;;20.83;4.20;;;15.90;96.70;;;;;;5060103;28;20099;-72
2023/03/10 11:54:13;;;;;;;23.08;4.35;;;15.90;96.70;;;;;;5093956;28;20591;-72
2023/03/10 11:56:42;;;;;;;19.63;4.45;;;16.00;96.70;;;;;;5068595;28;20040;-72
2023/03/10 11:59:16;;;;;;;21.35;3.85;;;16.20;96.70;;;;;;5065596;28;20402;-72
2023/03/10 12:01:50;;;;;;;27.10;4.53;;;16.80;96.70;;;;;;5089112;28;20118;-72
2023/03/10 12:04:21;;;;;;;21.00;3.88;;;17.20;96.70;;;;;;5071400;28;20128;-72
2023/03/10 12:06:53;;;;;;;18.20;3.75;;;17.20;96.70;;;;;;5065576;28;20149;-72
2023/03/10 12:09:38;;;;;;;21.05;3.75;;;17.00;96.70;;;;;;5096765;28;20047;-72
2023/03/10 12:12:11;;;;;;;20.58;3.95;;;16.70;96.70;;;;;;5076468;28;20094;-72
2023/03/10 12:14:41;;;;;;;19.77;4.70;;;16.50;96.70;;;;;;5065559;28;20497;-72
2023/03/10 12:17:12;;;;;;;17.02;4.03;;;16.40;96.70;;;;;;5092419;28;20810;-72
2023/03/10 12:20:10;;;;;;;23.63;4.43;;;16.40;96.70;;;;;;5098645;28;20048;-72
2023/03/10 12:22:39;;;;;;;24.42;4.57;;;16.30;96.70;;;;;;5103264;28;20055;-71
2023/03/10 12:25:46;;;;;;;22.98;4.35;;;16.20;96.70;;;;;;5067265;28;20036;-71
2023/03/10 12:28:32;;;;;;;17.95;4.63;;;16.40;96.70;;;;;;5072237;28;20059;-72
2023/03/10 12:31:04;;;;;;;24.33;5.50;;;16.60;96.70;;;;;;5063534;28;20051;-72
2023/03/10 12:33:48;;;;;;;23.10;5.05;;;16.80;96.70;;;;;;5086442;28;20062;-72
2023/03/10 12:36:31;;;;;;;21.40;4.70;;;17.00;96.70;;;;;;5075268;28;20114;-72
2023/03/10 12:39:00;;;;;;;19.63;4.63;;;16.90;96.70;;;;;;5058208;28;20451;-72
2023/03/10 12:41:46;;;;;;;25.52;5.60;;;16.90;96.70;;;;;;5075280;28;20036;-72
2023/03/10 12:44:50;;;;;;;23.10;4.65;;;17.00;96.70;;;;;;5065129;28;20032;-72
2023/03/10 12:47:43;;;;;;;25.05;4.38;;;16.90;96.70;;;;;;5061747;28;20051;-72
2023/03/10 12:50:28;;;;;;;21.88;4.50;;;16.90;96.70;;;;;;5092667;28;20098;-72
2023/03/10 12:53:05;;;;;;;19.67;4.43;;;16.80;96.70;;;;;;5095715;28;20581;-72
2023/03/10 12:55:33;;;;;;;24.80;4.78;;;16.70;96.70;;;;;;5068288;28;20051;-72
2023/03/10 12:58:13;;;;;;;18.58;4.82;;;16.80;96.70;;;;;;5056713;28;20561;-72
2023/03/10 13:00:47;;;;;;;28.63;5.18;;;16.70;96.70;;;;;;5078139;28;20048;-72
2023/03/10 13:03:28;;;;;;;22.10;4.32;;;16.70;96.70;;;;;;5093146;28;20044;-73
2023/03/10 13:05:59;;;;;;;23.98;5.25;;;16.70;96.70;;;;;;5101742;28;20048;-72